createdAt,value
2022-07-26T00:01:40.283Z,50.85
2022-07-26T00:04:08.677Z,50.79
2022-07-26T00:06:36.758Z,50.69
2022-07-26T00:09:11.147Z,51.13
2022-07-26T00:12:05.278Z,52.10
2022-07-26T00:14:34.657Z,50.91
2022-07-26T00:17:04.470Z,50.86
2022-07-26T00:19:35.572Z,50.84
2022-07-26T00:22:20.912Z,50.67
2022-07-26T00:24:56.437Z,50.68
2022-07-26T00:27:25.216Z,50.77
2022-07-26T00:29:55.118Z,50.58
2022-07-26T00:32:23.093Z,50.72
2022-07-26T00:34:56.972Z,50.83
2022-07-26T00:37:25.005Z,50.80
2022-07-26T00:39:52.956Z,50.62
2022-07-26T00:42:20.865Z,50.69
2022-07-26T00:44:49.698Z,50.72
2022-07-26T00:47:19.049Z,50.89
2022-07-26T00:49:47.135Z,51.07
2022-07-26T00:52:15.115Z,50.98
2022-07-26T00:54:45.912Z,50.84
2022-07-26T00:57:15.760Z,50.71
2022-07-26T00:59:43.923Z,50.80
2022-07-26T01:02:12.505Z,51.23
2022-07-26T01:04:44.272Z,51.08
2022-07-26T01:07:15.123Z,50.87
2022-07-26T01:09:44.249Z,50.51
2022-07-26T01:12:12.749Z,50.87
2022-07-26T01:14:52.231Z,50.66
2022-07-26T01:17:20.203Z,50.97
2022-07-26T01:19:52.638Z,50.85
2022-07-26T01:22:21.977Z,50.80
2022-07-26T01:24:56.072Z,51.05
2022-07-26T01:27:24.145Z,51.07
2022-07-26T01:29:54.961Z,51.17
2022-07-26T01:32:22.921Z,51.35
2022-07-26T01:34:51.088Z,51.61
2022-07-26T01:37:19.358Z,51.31
2022-07-26T01:39:56.328Z,51.36
2022-07-26T01:42:24.369Z,51.20
2022-07-26T01:44:52.254Z,51.30
2022-07-26T01:50:04.590Z,51.19
2022-07-26T01:52:35.690Z,51.33
2022-07-26T01:55:43.983Z,52.32
2022-07-26T01:58:22.685Z,51.44
2022-07-26T02:00:51.557Z,51.18
2022-07-26T02:03:19.754Z,51.01
2022-07-26T02:05:47.803Z,51.37
2022-07-26T02:08:15.893Z,51.22
2022-07-26T02:11:04.044Z,51.44
2022-07-26T02:13:40.705Z,52.52
2022-07-26T02:16:10.555Z,51.52
2022-07-26T02:18:40.459Z,51.44
2022-07-26T02:21:09.134Z,51.30
2022-07-26T02:23:41.292Z,51.18
2022-07-26T02:26:13.240Z,51.33
2022-07-26T02:28:45.312Z,51.55
2022-07-26T02:31:15.407Z,51.61
2022-07-26T02:33:49.782Z,51.60
2022-07-26T02:36:17.522Z,54.06
2022-07-26T02:38:45.432Z,51.62
2022-07-26T02:41:13.285Z,51.24
2022-07-26T02:43:43.897Z,51.31
2022-07-26T02:46:15.498Z,51.39
2022-07-26T02:48:46.206Z,51.43
2022-07-26T02:51:14.229Z,51.66
2022-07-26T02:53:42.380Z,51.54
2022-07-26T02:56:16.255Z,51.53
2022-07-26T02:58:44.184Z,51.71
2022-07-26T03:01:35.957Z,52.19
2022-07-26T03:04:04.567Z,51.83
2022-07-26T03:06:35.687Z,51.79
2022-07-26T03:09:04.627Z,51.96
2022-07-26T03:11:32.567Z,52.00
2022-07-26T03:14:00.535Z,51.94
2022-07-26T03:16:37.503Z,52.14
2022-07-26T03:19:06.877Z,52.06
2022-07-26T03:21:40.904Z,52.17
2022-07-26T03:24:08.932Z,55.98
2022-07-26T03:26:43.165Z,52.51
2022-07-26T03:29:13.300Z,56.71
2022-07-26T03:31:41.383Z,52.50
2022-07-26T03:34:11.194Z,52.26
2022-07-26T03:36:39.416Z,52.06
2022-07-26T03:39:09.861Z,52.04
2022-07-26T03:41:37.822Z,52.31
2022-07-26T03:44:09.776Z,52.48
2022-07-26T03:46:41.021Z,52.37
2022-07-26T03:49:16.627Z,52.48
2022-07-26T03:51:45.285Z,52.61
2022-07-26T03:54:13.453Z,53.05
2022-07-26T03:56:40.662Z,53.02
2022-07-26T03:59:10.622Z,52.89
2022-07-26T04:01:41.998Z,53.16
2022-07-26T04:04:15.559Z,53.09
2022-07-26T04:06:48.840Z,53.12
2022-07-26T04:09:22.009Z,53.17
2022-07-26T04:11:49.961Z,52.99
2022-07-26T04:14:17.854Z,53.32
2022-07-26T04:16:46.473Z,53.39
2022-07-26T04:19:20.906Z,53.34
2022-07-26T04:21:48.863Z,53.21
2022-07-26T04:24:17.406Z,53.11
2022-07-26T04:26:46.388Z,53.25
2022-07-26T04:29:17.101Z,53.32
2022-07-26T04:31:48.068Z,53.18
2022-07-26T04:34:17.408Z,53.50
2022-07-26T04:36:45.366Z,53.73
2022-07-26T04:39:13.314Z,53.56
2022-07-26T04:41:41.436Z,53.61
2022-07-26T04:44:09.807Z,53.55
2022-07-26T04:46:45.212Z,53.81
2022-07-26T04:49:18.457Z,54.42
2022-07-26T04:51:48.146Z,54.35
2022-07-26T04:54:20.634Z,54.63
2022-07-26T04:56:48.777Z,54.60
2022-07-26T04:59:21.688Z,54.55
2022-07-26T05:01:52.211Z,54.79
2022-07-26T05:04:21.534Z,54.89
2022-07-26T05:06:50.441Z,54.41
2022-07-26T05:09:18.395Z,54.55
2022-07-26T05:11:46.477Z,54.74
2022-07-26T05:14:17.228Z,54.35
2022-07-26T05:16:45.581Z,54.27
2022-07-26T05:19:14.033Z,54.12
2022-07-26T05:21:43.425Z,53.73
2022-07-26T05:24:11.717Z,54.01
2022-07-26T05:26:39.948Z,54.19
2022-07-26T05:29:11.631Z,54.27
2022-07-26T05:31:39.615Z,54.43
2022-07-26T05:34:08.220Z,54.40
2022-07-26T05:36:39.169Z,54.27
2022-07-26T05:39:11.700Z,54.47
2022-07-26T05:41:44.727Z,54.09
2022-07-26T05:44:12.780Z,53.99
2022-07-26T05:46:40.942Z,53.87
2022-07-26T05:49:09.063Z,54.13
2022-07-26T05:51:39.312Z,54.02
2022-07-26T05:54:11.432Z,53.87
2022-07-26T05:56:40.051Z,54.06
2022-07-26T05:59:10.738Z,53.99
2022-07-26T06:01:39.467Z,54.28
2022-07-26T06:04:09.360Z,53.93
2022-07-26T06:06:37.552Z,53.70
2022-07-26T06:09:05.661Z,53.67
2022-07-26T06:11:37.754Z,53.60
2022-07-26T06:14:15.481Z,54.01
2022-07-26T06:16:46.627Z,53.42
2022-07-26T06:19:14.644Z,53.22
2022-07-26T06:21:45.571Z,53.53
2022-07-26T06:24:13.633Z,53.35
2022-07-26T06:26:42.979Z,52.65
2022-07-26T06:29:11.021Z,51.34
2022-07-26T06:31:40.577Z,50.99
2022-07-26T06:34:09.982Z,50.64
2022-07-26T06:36:52.451Z,51.46
2022-07-26T06:39:23.258Z,51.41
2022-07-26T06:41:52.565Z,50.60
2022-07-26T06:44:29.216Z,50.32
2022-07-26T06:46:57.235Z,50.56
2022-07-26T06:49:25.193Z,50.34
2022-07-26T06:51:53.259Z,50.73
2022-07-26T06:54:23.955Z,51.35
2022-07-26T06:56:53.317Z,51.29
2022-07-26T06:59:21.287Z,51.25
2022-07-26T07:01:59.563Z,51.41
2022-07-26T07:04:29.289Z,51.89
2022-07-26T07:07:04.493Z,51.79
2022-07-26T07:09:35.602Z,52.13
2022-07-26T07:12:10.122Z,51.78
2022-07-26T07:14:39.072Z,52.65
2022-07-26T07:17:19.864Z,52.70
2022-07-26T07:19:48.624Z,52.77
2022-07-26T07:22:16.709Z,52.36
2022-07-26T07:24:52.059Z,51.78
2022-07-26T07:27:21.441Z,51.19
2022-07-26T07:29:49.371Z,51.17
2022-07-26T07:32:18.693Z,51.61
2022-07-26T07:34:50.743Z,51.39
2022-07-26T07:37:20.256Z,51.39
2022-07-26T07:39:49.983Z,52.24
2022-07-26T07:42:19.280Z,52.94
2022-07-26T07:44:50.860Z,53.10
2022-07-26T07:49:46.885Z,53.37
2022-07-26T07:52:14.851Z,52.85
2022-07-26T07:55:02.185Z,52.98
2022-07-26T07:57:40.166Z,52.79
2022-07-26T08:00:34.645Z,52.84
2022-07-26T08:03:11.025Z,52.11
2022-07-26T08:05:40.390Z,53.81
2022-07-26T08:08:08.893Z,51.50
2022-07-26T08:10:38.705Z,51.28
2022-07-26T08:13:11.723Z,50.75
2022-07-26T08:15:41.009Z,50.67
2022-07-26T08:18:08.949Z,50.93
2022-07-26T08:20:41.558Z,52.03
2022-07-26T08:23:16.972Z,52.76
2022-07-26T08:25:55.598Z,53.77
2022-07-26T08:28:46.189Z,54.25
2022-07-26T08:31:16.196Z,54.89
2022-07-26T08:33:47.661Z,58.76
2022-07-26T08:36:16.672Z,58.49
2022-07-26T08:38:48.063Z,59.50
2022-07-26T08:41:19.420Z,59.63
2022-07-26T08:43:53.080Z,59.94
2022-07-26T08:46:27.729Z,60.86
2022-07-26T08:48:56.782Z,61.82
2022-07-26T08:51:26.970Z,62.51
2022-07-26T08:54:03.990Z,62.71
2022-07-26T08:56:52.026Z,65.18
2022-07-26T08:59:22.685Z,62.38
2022-07-26T09:02:07.457Z,63.92
2022-07-26T09:04:43.590Z,68.55
2022-07-26T09:07:15.384Z,60.93
2022-07-26T09:10:01.455Z,62.08
2022-07-26T09:12:30.678Z,61.15
2022-07-26T09:14:59.262Z,61.13
2022-07-26T09:17:42.837Z,61.17
2022-07-26T09:20:13.693Z,60.05
2022-07-26T09:23:06.155Z,60.74
2022-07-26T09:25:36.190Z,60.03
2022-07-26T09:28:06.056Z,59.85
2022-07-26T09:30:34.450Z,59.31
2022-07-26T09:33:06.545Z,59.01
2022-07-26T09:35:50.925Z,58.42
2022-07-26T09:38:40.348Z,59.73
2022-07-26T09:41:20.524Z,59.39
2022-07-26T09:43:53.330Z,58.67
2022-07-26T09:46:22.881Z,58.19
2022-07-26T09:49:12.318Z,57.29
2022-07-26T09:51:45.698Z,57.44
2022-07-26T09:54:20.540Z,57.43
2022-07-26T09:56:55.899Z,57.17
2022-07-26T09:59:28.371Z,56.98
2022-07-26T10:01:58.319Z,56.75
2022-07-26T10:04:30.605Z,56.63
2022-07-26T10:06:58.966Z,55.90
2022-07-26T10:09:32.809Z,56.04
2022-07-26T10:12:04.151Z,62.00
2022-07-26T10:14:44.739Z,57.04
2022-07-26T10:17:48.084Z,58.28
2022-07-26T10:20:36.153Z,61.92
2022-07-26T10:23:38.713Z,57.87
2022-07-26T10:26:09.809Z,57.41
2022-07-26T10:28:40.185Z,58.62
2022-07-26T10:31:33.110Z,59.86
2022-07-26T10:34:07.600Z,59.95
2022-07-26T10:36:40.117Z,59.77
2022-07-26T10:39:15.592Z,60.01
2022-07-26T10:41:46.397Z,59.47
2022-07-26T10:44:26.064Z,60.26
2022-07-26T10:47:15.838Z,61.09
2022-07-26T10:49:56.379Z,62.76
2022-07-26T10:52:28.759Z,60.58
2022-07-26T10:55:21.757Z,60.59
2022-07-26T10:57:50.263Z,59.27
2022-07-26T11:00:26.417Z,59.34
2022-07-26T11:02:57.715Z,58.67
2022-07-26T11:05:31.318Z,58.43
2022-07-26T11:08:08.166Z,57.25
2022-07-26T11:10:39.265Z,56.08
2022-07-26T11:13:23.565Z,56.00
2022-07-26T11:15:54.215Z,59.18
2022-07-26T11:18:36.382Z,56.74
2022-07-26T11:21:13.522Z,55.62
2022-07-26T11:23:44.103Z,55.16
2022-07-26T11:26:25.764Z,54.79
2022-07-26T11:29:01.390Z,54.91
2022-07-26T11:31:50.738Z,54.53
2022-07-26T11:34:35.430Z,54.13
2022-07-26T11:37:07.037Z,54.21
2022-07-26T11:39:36.939Z,54.17
2022-07-26T11:42:09.007Z,53.95
2022-07-26T11:44:37.860Z,53.66
2022-07-26T11:47:14.566Z,53.80
2022-07-26T11:50:00.693Z,54.03
2022-07-26T11:52:32.491Z,54.21
2022-07-26T11:55:01.077Z,54.67
2022-07-26T11:57:32.738Z,54.41
2022-07-26T12:00:01.953Z,54.14
2022-07-26T12:02:41.043Z,53.71
2022-07-26T12:05:19.433Z,53.28
2022-07-26T12:08:02.786Z,52.97
2022-07-26T12:10:31.020Z,52.90
2022-07-26T12:13:14.401Z,53.06
2022-07-26T12:15:47.544Z,54.01
2022-07-26T12:18:26.401Z,55.35
2022-07-26T12:21:05.669Z,56.52
2022-07-26T12:23:49.306Z,56.64
2022-07-26T12:26:22.424Z,56.63
2022-07-26T12:29:21.417Z,57.04
2022-07-26T12:32:10.293Z,56.54
2022-07-26T12:34:58.189Z,55.42
2022-07-26T12:37:39.442Z,54.56
2022-07-26T12:40:11.614Z,54.07
2022-07-26T12:42:41.739Z,53.71
2022-07-26T12:45:15.095Z,52.76
2022-07-26T12:47:46.274Z,52.20
2022-07-26T12:50:16.058Z,53.15
2022-07-26T12:52:44.706Z,53.06
2022-07-26T12:55:21.934Z,52.88
2022-07-26T12:57:50.135Z,53.06
2022-07-26T13:00:25.564Z,52.43
2022-07-26T13:02:55.169Z,52.09
2022-07-26T13:05:23.619Z,52.00
2022-07-26T13:07:52.453Z,53.05
2022-07-26T13:10:36.377Z,53.17
2022-07-26T13:13:04.822Z,53.24
2022-07-26T13:15:39.760Z,52.89
2022-07-26T13:18:08.686Z,53.16
2022-07-26T13:20:38.187Z,53.17
2022-07-26T13:23:06.361Z,54.03
2022-07-26T13:25:39.591Z,54.40
2022-07-26T13:28:12.726Z,54.97
2022-07-26T13:30:48.398Z,54.84
2022-07-26T13:33:16.657Z,54.57
2022-07-26T13:35:44.778Z,54.60
2022-07-26T13:38:12.621Z,54.51
2022-07-26T13:40:40.802Z,54.67
2022-07-26T13:43:08.767Z,54.25
2022-07-26T13:45:39.095Z,53.86
2022-07-26T13:48:10.052Z,53.59
2022-07-26T13:50:41.048Z,53.31
2022-07-26T13:53:12.122Z,53.20
2022-07-26T13:55:40.921Z,53.20
2022-07-26T13:58:11.916Z,53.36
2022-07-26T14:00:43.844Z,53.27
2022-07-26T14:03:16.237Z,53.06
2022-07-26T14:05:48.233Z,52.46
2022-07-26T14:08:27.987Z,52.59
2022-07-26T14:10:55.960Z,53.15
2022-07-26T14:13:24.723Z,52.70
2022-07-26T14:15:52.682Z,52.83
2022-07-26T14:18:27.997Z,52.55
2022-07-26T14:20:56.022Z,52.38
2022-07-26T14:23:26.289Z,52.09
2022-07-26T14:25:54.368Z,51.68
2022-07-26T14:28:24.495Z,51.64
2022-07-26T14:30:52.907Z,51.66
2022-07-26T14:33:43.570Z,51.57
2022-07-26T14:36:19.197Z,51.28
2022-07-26T14:38:47.733Z,51.48
2022-07-26T14:41:18.078Z,51.50
2022-07-26T14:43:55.732Z,51.86
2022-07-26T14:46:23.828Z,52.29
2022-07-26T14:48:55.964Z,52.14
2022-07-26T14:51:26.765Z,52.05
2022-07-26T14:53:54.749Z,51.99
2022-07-26T14:56:25.762Z,51.88
2022-07-26T14:58:53.945Z,51.97
2022-07-26T15:01:22.080Z,52.23
2022-07-26T15:03:53.284Z,52.29
2022-07-26T15:06:21.300Z,51.60
2022-07-26T15:08:53.014Z,51.04
2022-07-26T15:11:23.398Z,51.21
2022-07-26T15:13:52.107Z,51.52
2022-07-26T15:16:20.990Z,51.49
2022-07-26T15:18:49.126Z,51.56
2022-07-26T15:21:43.845Z,50.95
2022-07-26T15:24:14.874Z,51.77
2022-07-26T15:27:08.853Z,50.82
2022-07-26T15:29:43.170Z,51.01
2022-07-26T15:32:13.590Z,51.03
2022-07-26T15:34:43.933Z,51.09
2022-07-26T15:37:30.328Z,51.11
2022-07-26T15:40:06.016Z,50.78
2022-07-26T15:42:34.077Z,50.32
2022-07-26T15:45:06.811Z,50.71
2022-07-26T15:47:53.600Z,51.00
2022-07-26T15:50:23.012Z,51.64
2022-07-26T15:52:52.465Z,51.72
2022-07-26T15:55:20.913Z,51.78
2022-07-26T15:57:48.954Z,51.48
2022-07-26T16:00:19.990Z,51.50
2022-07-26T16:02:50.828Z,51.72
2022-07-26T16:05:19.117Z,51.48
2022-07-26T16:07:48.162Z,51.46
2022-07-26T16:10:17.639Z,51.30
2022-07-26T16:12:45.559Z,51.22
2022-07-26T16:15:14.022Z,51.03
2022-07-26T16:17:42.024Z,50.91
2022-07-26T16:20:13.678Z,51.30
2022-07-26T16:22:41.964Z,50.88
2022-07-26T16:25:13.083Z,50.83
2022-07-26T16:27:45.933Z,50.92
2022-07-26T16:30:15.355Z,50.94
2022-07-26T16:32:45.873Z,51.22
2022-07-26T16:35:14.728Z,51.18
2022-07-26T16:37:45.472Z,51.07
2022-07-26T16:40:13.710Z,51.16
2022-07-26T16:42:49.065Z,50.69
2022-07-26T16:45:19.303Z,50.83
2022-07-26T16:47:47.262Z,50.74
2022-07-26T16:50:24.965Z,50.48
2022-07-26T16:52:55.930Z,50.75
2022-07-26T16:55:26.159Z,51.19
2022-07-26T16:57:57.656Z,50.73
2022-07-26T17:00:25.871Z,50.38
2022-07-26T17:02:53.854Z,50.38
2022-07-26T17:05:21.894Z,50.47
2022-07-26T17:07:52.510Z,50.72
2022-07-26T17:10:21.621Z,51.20
2022-07-26T17:12:51.773Z,51.12
2022-07-26T17:15:21.337Z,50.95
2022-07-26T17:17:50.077Z,51.21
2022-07-26T17:20:18.011Z,51.14
2022-07-26T17:22:53.479Z,50.81
2022-07-26T17:25:21.596Z,50.63
2022-07-26T17:27:52.279Z,50.33
2022-07-26T17:30:21.562Z,50.07
2022-07-26T17:32:51.608Z,50.24
2022-07-26T17:35:22.885Z,50.10
2022-07-26T17:37:55.460Z,50.38
2022-07-26T17:40:33.717Z,50.47
2022-07-26T17:43:01.596Z,50.68
2022-07-26T17:45:33.423Z,50.81
2022-07-26T17:48:06.121Z,51.47
2022-07-26T17:50:36.886Z,51.39
2022-07-26T17:53:06.647Z,51.32
2022-07-26T17:55:48.729Z,51.07
2022-07-26T17:58:19.081Z,51.02
2022-07-26T18:00:48.386Z,50.71
2022-07-26T18:03:16.271Z,50.83
2022-07-26T18:05:44.271Z,50.92
2022-07-26T18:08:27.184Z,49.69
2022-07-26T18:10:55.482Z,50.81
2022-07-26T18:13:23.948Z,50.83
2022-07-26T18:15:56.955Z,50.66
2022-07-26T18:18:25.287Z,50.64
2022-07-26T18:20:53.490Z,50.76
2022-07-26T18:23:21.494Z,50.65
2022-07-26T18:25:49.561Z,50.78
2022-07-26T18:28:17.537Z,50.76
2022-07-26T18:30:46.055Z,50.88
2022-07-26T18:33:26.460Z,50.97
2022-07-26T18:35:56.953Z,50.93
2022-07-26T18:38:25.157Z,51.05
2022-07-26T18:40:55.853Z,50.72
2022-07-26T18:43:24.101Z,51.03
2022-07-26T18:45:52.069Z,50.81
2022-07-26T18:48:29.711Z,50.96
2022-07-26T18:51:03.939Z,51.00
2022-07-26T18:53:41.073Z,51.03
2022-07-26T18:56:14.372Z,51.21
2022-07-26T18:58:43.353Z,51.48
2022-07-26T19:01:17.290Z,51.49
2022-07-26T19:03:46.677Z,51.62
2022-07-26T19:06:17.450Z,51.67
2022-07-26T19:08:45.400Z,51.58
2022-07-26T19:11:19.459Z,51.84
2022-07-26T19:13:51.686Z,51.94
2022-07-26T19:16:19.734Z,51.66
2022-07-26T19:18:58.036Z,51.54
2022-07-26T19:21:26.141Z,51.62
2022-07-26T19:23:54.290Z,51.80
2022-07-26T19:26:23.838Z,51.77
2022-07-26T19:28:52.065Z,52.26
2022-07-26T19:31:20.360Z,52.18
2022-07-26T19:33:51.410Z,52.08
2022-07-26T19:36:26.056Z,51.96
2022-07-26T19:38:56.593Z,52.54
2022-07-26T19:41:27.753Z,52.22
2022-07-26T19:43:56.245Z,52.27
2022-07-26T19:46:24.400Z,52.18
2022-07-26T19:48:56.772Z,52.04
2022-07-26T19:51:26.104Z,51.89
2022-07-26T19:53:57.099Z,51.68
2022-07-26T19:56:41.736Z,51.77
2022-07-26T19:59:09.911Z,51.87
2022-07-26T20:01:40.484Z,52.12
2022-07-26T20:04:08.406Z,52.19
2022-07-26T20:06:40.547Z,52.38
2022-07-26T20:09:08.740Z,52.49
2022-07-26T20:11:37.035Z,52.39
2022-07-26T20:14:04.955Z,52.52
2022-07-26T20:16:33.404Z,52.76
2022-07-26T20:19:03.552Z,52.91
2022-07-26T20:21:31.836Z,52.87
2022-07-26T20:24:01.212Z,53.07
2022-07-26T20:26:29.063Z,52.79
2022-07-26T20:28:58.164Z,52.87
2022-07-26T20:31:26.143Z,52.67
2022-07-26T20:33:54.162Z,52.58
2022-07-26T20:36:22.240Z,52.79
2022-07-26T20:38:51.781Z,52.64
2022-07-26T20:41:24.310Z,52.68
2022-07-26T20:43:56.812Z,52.89
2022-07-26T20:46:25.025Z,52.89
2022-07-26T20:48:54.477Z,53.29
2022-07-26T20:51:22.485Z,53.42
2022-07-26T20:53:50.726Z,53.77
2022-07-26T20:56:19.086Z,53.80
2022-07-26T20:58:48.935Z,54.16
2022-07-26T21:01:19.960Z,54.06
2022-07-26T21:03:47.992Z,53.71
2022-07-26T21:06:19.123Z,53.84
2022-07-26T21:08:47.198Z,54.05
2022-07-26T21:11:19.272Z,53.89
2022-07-26T21:13:50.861Z,53.94
2022-07-26T21:16:24.295Z,53.99
2022-07-26T21:18:52.905Z,54.26
2022-07-26T21:21:21.340Z,53.76
2022-07-26T21:23:54.010Z,54.38
2022-07-26T21:26:22.039Z,54.20
2022-07-26T21:28:51.650Z,53.90
2022-07-26T21:31:20.389Z,54.28
2022-07-26T21:33:50.753Z,54.06
2022-07-26T21:36:19.753Z,53.81
2022-07-26T21:38:50.925Z,54.12
2022-07-26T21:41:18.892Z,54.30
2022-07-26T21:44:08.451Z,54.53
2022-07-26T21:46:36.551Z,55.11
2022-07-26T21:49:07.557Z,55.08
2022-07-26T21:51:36.261Z,54.50
2022-07-26T21:54:04.492Z,55.01
2022-07-26T21:56:34.728Z,54.55
2022-07-26T21:59:06.983Z,54.93
2022-07-26T22:01:41.088Z,54.72
2022-07-26T22:04:10.157Z,57.40
2022-07-26T22:06:41.318Z,54.52
2022-07-26T22:09:10.335Z,54.48
2022-07-26T22:11:48.902Z,54.54
2022-07-26T22:14:18.126Z,54.52
2022-07-26T22:16:47.545Z,54.68
2022-07-26T22:19:15.578Z,54.98
2022-07-26T22:21:43.401Z,54.77
2022-07-26T22:24:20.498Z,55.04
2022-07-26T22:26:48.559Z,54.90
2022-07-26T22:29:19.500Z,55.24
2022-07-26T22:31:50.548Z,55.01
2022-07-26T22:34:18.428Z,54.91
2022-07-26T22:36:46.335Z,55.26
2022-07-26T22:39:14.765Z,54.82
2022-07-26T22:42:12.840Z,54.84
2022-07-26T22:44:35.131Z,55.35
2022-07-26T22:47:03.133Z,55.50
2022-07-26T22:49:31.223Z,55.31
2022-07-26T22:51:59.237Z,55.01
2022-07-26T22:54:33.287Z,55.28
2022-07-26T22:57:01.144Z,57.97
2022-07-26T22:59:32.104Z,55.54
2022-07-26T23:02:04.572Z,55.55
2022-07-26T23:04:35.216Z,55.65
2022-07-26T23:07:03.187Z,55.66
2022-07-26T23:09:38.087Z,55.23
2022-07-26T23:12:07.970Z,55.49
2022-07-26T23:14:36.404Z,55.58
2022-07-26T23:17:05.744Z,55.08
2022-07-26T23:19:33.678Z,55.41
2022-07-26T23:22:01.665Z,55.42
2022-07-26T23:24:31.842Z,55.76
2022-07-26T23:26:59.850Z,55.69
2022-07-26T23:29:30.149Z,55.85
2022-07-26T23:31:58.455Z,55.93
2022-07-26T23:34:31.809Z,55.95
2022-07-26T23:36:59.819Z,55.90
2022-07-26T23:39:28.373Z,55.73
2022-07-26T23:42:02.675Z,55.73
2022-07-26T23:44:35.352Z,56.09
2022-07-26T23:47:03.329Z,55.83
2022-07-26T23:49:32.681Z,55.77
2022-07-26T23:52:17.489Z,55.94
2022-07-26T23:57:27.191Z,55.75
2022-07-26T23:59:57.594Z,56.19
